sensor_id;sensor_type;location;lat;lon;timestamp;P1;durP1;ratioP1;P2;durP2;ratioP2
4744;SDS011;2386;42.138;24.746;2023-03-01T00:01:30;167.97;;;62.60;;
4744;SDS011;2386;42.138;24.746;2023-03-01T00:03:56;175.93;;;65.80;;
4744;SDS011;2386;42.138;24.746;2023-03-01T00:06:23;171.60;;;62.87;;
4744;SDS011;2386;42.138;24.746;2023-03-01T00:08:49;174.33;;;64.97;;
4744;SDS011;2386;42.138;24.746;2023-03-01T00:13:42;159.90;;;60.03;;
4744;SDS011;2386;42.138;24.746;2023-03-01T00:16:10;167.87;;;62.90;;
4744;SDS011;2386;42.138;24.746;2023-03-01T00:18:37;167.37;;;61.23;;
4744;SDS011;2386;42.138;24.746;2023-03-01T00:21:03;172.77;;;61.60;;
4744;SDS011;2386;42.138;24.746;2023-03-01T00:23:28;173.93;;;61.80;;
4744;SDS011;2386;42.138;24.746;2023-03-01T00:25:54;175.07;;;61.10;;
4744;SDS011;2386;42.138;24.746;2023-03-01T00:28:20;171.30;;;61.67;;
4744;SDS011;2386;42.138;24.746;2023-03-01T00:30:46;186.20;;;64.90;;
4744;SDS011;2386;42.138;24.746;2023-03-01T00:33:11;166.03;;;60.53;;
4744;SDS011;2386;42.138;24.746;2023-03-01T00:35:37;168.90;;;61.87;;
4744;SDS011;2386;42.138;24.746;2023-03-01T00:38:02;172.10;;;61.13;;
4744;SDS011;2386;42.138;24.746;2023-03-01T00:40:29;165.00;;;59.67;;
4744;SDS011;2386;42.138;24.746;2023-03-01T00:42:56;177.27;;;65.63;;
4744;SDS011;2386;42.138;24.746;2023-03-01T00:45:22;186.43;;;63.50;;
4744;SDS011;2386;42.138;24.746;2023-03-01T00:47:48;188.40;;;64.47;;
4744;SDS011;2386;42.138;24.746;2023-03-01T00:50:14;182.73;;;61.87;;
4744;SDS011;2386;42.138;24.746;2023-03-01T00:52:39;193.43;;;65.37;;
4744;SDS011;2386;42.138;24.746;2023-03-01T00:55:05;181.43;;;61.90;;
4744;SDS011;2386;42.138;24.746;2023-03-01T00:57:31;189.27;;;61.87;;
4744;SDS011;2386;42.138;24.746;2023-03-01T00:59:57;190.33;;;60.50;;
4744;SDS011;2386;42.138;24.746;2023-03-01T01:02:22;200.57;;;67.87;;
4744;SDS011;2386;42.138;24.746;2023-03-01T01:04:48;191.37;;;64.70;;
4744;SDS011;2386;42.138;24.746;2023-03-01T01:07:13;192.00;;;65.37;;
4744;SDS011;2386;42.138;24.746;2023-03-01T01:09:39;203.47;;;66.50;;
4744;SDS011;2386;42.138;24.746;2023-03-01T01:12:05;193.20;;;64.80;;
4744;SDS011;2386;42.138;24.746;2023-03-01T01:14:31;193.00;;;63.60;;
4744;SDS011;2386;42.138;24.746;2023-03-01T01:16:56;197.77;;;67.43;;
4744;SDS011;2386;42.138;24.746;2023-03-01T01:19:22;205.67;;;69.97;;
4744;SDS011;2386;42.138;24.746;2023-03-01T01:21:48;191.03;;;65.27;;
4744;SDS011;2386;42.138;24.746;2023-03-01T01:24:14;200.17;;;67.70;;
4744;SDS011;2386;42.138;24.746;2023-03-01T01:26:40;199.47;;;64.93;;
4744;SDS011;2386;42.138;24.746;2023-03-01T01:29:06;200.13;;;66.60;;
4744;SDS011;2386;42.138;24.746;2023-03-01T01:31:33;209.87;;;69.17;;
4744;SDS011;2386;42.138;24.746;2023-03-01T01:34:00;204.80;;;68.10;;
4744;SDS011;2386;42.138;24.746;2023-03-01T01:36:26;203.07;;;66.93;;
4744;SDS011;2386;42.138;24.746;2023-03-01T01:38:52;192.47;;;65.40;;
4744;SDS011;2386;42.138;24.746;2023-03-01T01:41:19;189.30;;;65.57;;
4744;SDS011;2386;42.138;24.746;2023-03-01T01:43:49;188.47;;;63.63;;
4744;SDS011;2386;42.138;24.746;2023-03-01T01:46:36;206.50;;;68.47;;
4744;SDS011;2386;42.138;24.746;2023-03-01T01:49:04;185.83;;;64.53;;
4744;SDS011;2386;42.138;24.746;2023-03-01T01:51:40;199.07;;;68.17;;
4744;SDS011;2386;42.138;24.746;2023-03-01T01:54:12;202.73;;;67.97;;
4744;SDS011;2386;42.138;24.746;2023-03-01T01:56:44;183.00;;;63.30;;
4744;SDS011;2386;42.138;24.746;2023-03-01T01:59:14;211.70;;;72.90;;
4744;SDS011;2386;42.138;24.746;2023-03-01T02:01:40;195.43;;;67.47;;
4744;SDS011;2386;42.138;24.746;2023-03-01T02:04:05;205.97;;;68.10;;
4744;SDS011;2386;42.138;24.746;2023-03-01T02:06:33;207.73;;;69.07;;
4744;SDS011;2386;42.138;24.746;2023-03-01T02:09:11;202.73;;;69.57;;
4744;SDS011;2386;42.138;24.746;2023-03-01T02:11:39;204.33;;;70.40;;
4744;SDS011;2386;42.138;24.746;2023-03-01T02:14:05;200.37;;;69.13;;
4744;SDS011;2386;42.138;24.746;2023-03-01T02:16:31;202.90;;;67.37;;
4744;SDS011;2386;42.138;24.746;2023-03-01T02:18:57;200.90;;;69.77;;
4744;SDS011;2386;42.138;24.746;2023-03-01T02:24:03;190.53;;;65.03;;
4744;SDS011;2386;42.138;24.746;2023-03-01T02:26:48;205.30;;;69.07;;
4744;SDS011;2386;42.138;24.746;2023-03-01T02:29:16;195.70;;;66.90;;
4744;SDS011;2386;42.138;24.746;2023-03-01T02:31:42;199.17;;;68.50;;
4744;SDS011;2386;42.138;24.746;2023-03-01T02:34:12;192.50;;;67.17;;
4744;SDS011;2386;42.138;24.746;2023-03-01T02:36:47;187.30;;;66.90;;
4744;SDS011;2386;42.138;24.746;2023-03-01T02:39:17;185.43;;;65.50;;
4744;SDS011;2386;42.138;24.746;2023-03-01T02:41:47;190.43;;;69.60;;
4744;SDS011;2386;42.138;24.746;2023-03-01T02:44:15;185.40;;;63.97;;
4744;SDS011;2386;42.138;24.746;2023-03-01T02:46:48;197.23;;;70.70;;
4744;SDS011;2386;42.138;24.746;2023-03-01T02:49:18;204.57;;;67.67;;
4744;SDS011;2386;42.138;24.746;2023-03-01T02:51:48;181.60;;;65.13;;
4744;SDS011;2386;42.138;24.746;2023-03-01T02:54:28;177.57;;;62.10;;
4744;SDS011;2386;42.138;24.746;2023-03-01T02:57:03;188.07;;;66.10;;
4744;SDS011;2386;42.138;24.746;2023-03-01T02:59:30;192.60;;;66.67;;
4744;SDS011;2386;42.138;24.746;2023-03-01T03:02:00;190.50;;;65.97;;
4744;SDS011;2386;42.138;24.746;2023-03-01T03:04:26;186.00;;;66.47;;
4744;SDS011;2386;42.138;24.746;2023-03-01T03:06:51;182.70;;;65.33;;
4744;SDS011;2386;42.138;24.746;2023-03-01T03:09:17;192.60;;;67.10;;
4744;SDS011;2386;42.138;24.746;2023-03-01T03:11:43;174.70;;;61.20;;
4744;SDS011;2386;42.138;24.746;2023-03-01T03:14:12;183.27;;;65.37;;
4744;SDS011;2386;42.138;24.746;2023-03-01T03:16:40;178.07;;;64.70;;
4744;SDS011;2386;42.138;24.746;2023-03-01T03:19:10;181.23;;;63.80;;
4744;SDS011;2386;42.138;24.746;2023-03-01T03:21:35;181.30;;;63.80;;
4744;SDS011;2386;42.138;24.746;2023-03-01T03:24:01;174.13;;;61.50;;
4744;SDS011;2386;42.138;24.746;2023-03-01T03:26:27;164.97;;;62.97;;
4744;SDS011;2386;42.138;24.746;2023-03-01T03:28:53;172.97;;;66.87;;
4744;SDS011;2386;42.138;24.746;2023-03-01T03:31:18;156.13;;;60.00;;
4744;SDS011;2386;42.138;24.746;2023-03-01T03:33:44;156.53;;;64.20;;
4744;SDS011;2386;42.138;24.746;2023-03-01T03:36:09;148.67;;;59.63;;
4744;SDS011;2386;42.138;24.746;2023-03-01T03:38:42;149.50;;;60.47;;
4744;SDS011;2386;42.138;24.746;2023-03-01T03:41:09;138.27;;;58.10;;
4744;SDS011;2386;42.138;24.746;2023-03-01T03:46:37;148.37;;;58.30;;
4744;SDS011;2386;42.138;24.746;2023-03-01T03:49:02;135.53;;;55.10;;
4744;SDS011;2386;42.138;24.746;2023-03-01T03:51:28;144.57;;;58.43;;
4744;SDS011;2386;42.138;24.746;2023-03-01T03:53:53;156.60;;;61.47;;
4744;SDS011;2386;42.138;24.746;2023-03-01T03:56:18;156.23;;;62.50;;
4744;SDS011;2386;42.138;24.746;2023-03-01T03:58:44;150.40;;;61.80;;
4744;SDS011;2386;42.138;24.746;2023-03-01T04:01:09;146.87;;;60.80;;
4744;SDS011;2386;42.138;24.746;2023-03-01T04:03:34;157.30;;;62.97;;
4744;SDS011;2386;42.138;24.746;2023-03-01T04:06:00;156.83;;;61.10;;
4744;SDS011;2386;42.138;24.746;2023-03-01T04:08:26;156.13;;;62.97;;
4744;SDS011;2386;42.138;24.746;2023-03-01T04:10:55;156.20;;;60.57;;
4744;SDS011;2386;42.138;24.746;2023-03-01T04:13:23;143.13;;;61.60;;
4744;SDS011;2386;42.138;24.746;2023-03-01T04:15:50;137.13;;;59.53;;
4744;SDS011;2386;42.138;24.746;2023-03-01T04:18:16;139.97;;;57.80;;
4744;SDS011;2386;42.138;24.746;2023-03-01T04:20:43;143.83;;;56.30;;
4744;SDS011;2386;42.138;24.746;2023-03-01T04:23:11;149.80;;;60.20;;
4744;SDS011;2386;42.138;24.746;2023-03-01T04:25:51;152.47;;;61.00;;
4744;SDS011;2386;42.138;24.746;2023-03-01T04:28:20;145.60;;;58.73;;
4744;SDS011;2386;42.138;24.746;2023-03-01T04:30:49;140.53;;;57.50;;
4744;SDS011;2386;42.138;24.746;2023-03-01T04:33:15;142.83;;;59.10;;
4744;SDS011;2386;42.138;24.746;2023-03-01T04:35:41;151.47;;;60.07;;
4744;SDS011;2386;42.138;24.746;2023-03-01T04:38:07;152.07;;;60.73;;
4744;SDS011;2386;42.138;24.746;2023-03-01T04:40:32;141.77;;;56.90;;
4744;SDS011;2386;42.138;24.746;2023-03-01T04:42:57;151.37;;;60.70;;
4744;SDS011;2386;42.138;24.746;2023-03-01T04:45:23;154.27;;;59.63;;
4744;SDS011;2386;42.138;24.746;2023-03-01T04:47:49;146.17;;;57.10;;
4744;SDS011;2386;42.138;24.746;2023-03-01T04:50:17;140.07;;;54.83;;
4744;SDS011;2386;42.138;24.746;2023-03-01T04:52:45;152.17;;;60.20;;
4744;SDS011;2386;42.138;24.746;2023-03-01T04:55:11;135.20;;;55.30;;
4744;SDS011;2386;42.138;24.746;2023-03-01T04:57:37;143.00;;;57.73;;
4744;SDS011;2386;42.138;24.746;2023-03-01T05:00:03;145.40;;;58.80;;
4744;SDS011;2386;42.138;24.746;2023-03-01T05:02:45;143.07;;;56.10;;
4744;SDS011;2386;42.138;24.746;2023-03-01T05:05:32;146.13;;;58.43;;
4744;SDS011;2386;42.138;24.746;2023-03-01T05:08:00;138.73;;;57.80;;
4744;SDS011;2386;42.138;24.746;2023-03-01T05:10:27;145.83;;;58.17;;
4744;SDS011;2386;42.138;24.746;2023-03-01T05:12:54;128.17;;;54.33;;
4744;SDS011;2386;42.138;24.746;2023-03-01T05:15:22;136.00;;;57.67;;
4744;SDS011;2386;42.138;24.746;2023-03-01T05:17:50;124.40;;;53.70;;
4744;SDS011;2386;42.138;24.746;2023-03-01T05:20:16;142.20;;;60.30;;
4744;SDS011;2386;42.138;24.746;2023-03-01T05:22:41;147.43;;;60.57;;
4744;SDS011;2386;42.138;24.746;2023-03-01T05:25:07;144.40;;;60.27;;
4744;SDS011;2386;42.138;24.746;2023-03-01T05:27:33;151.10;;;62.07;;
4744;SDS011;2386;42.138;24.746;2023-03-01T05:29:59;152.00;;;64.53;;
4744;SDS011;2386;42.138;24.746;2023-03-01T05:32:24;135.47;;;57.70;;
4744;SDS011;2386;42.138;24.746;2023-03-01T05:34:50;167.83;;;71.27;;
4744;SDS011;2386;42.138;24.746;2023-03-01T05:37:17;164.10;;;70.53;;
4744;SDS011;2386;42.138;24.746;2023-03-01T05:39:42;155.83;;;63.87;;
4744;SDS011;2386;42.138;24.746;2023-03-01T05:42:08;164.80;;;67.27;;
4744;SDS011;2386;42.138;24.746;2023-03-01T05:44:35;163.03;;;61.80;;
4744;SDS011;2386;42.138;24.746;2023-03-01T05:47:01;162.23;;;62.63;;
4744;SDS011;2386;42.138;24.746;2023-03-01T05:49:26;188.90;;;69.00;;
4744;SDS011;2386;42.138;24.746;2023-03-01T05:51:52;144.07;;;59.50;;
4744;SDS011;2386;42.138;24.746;2023-03-01T05:54:21;150.07;;;61.07;;
4744;SDS011;2386;42.138;24.746;2023-03-01T05:56:46;150.37;;;59.83;;
4744;SDS011;2386;42.138;24.746;2023-03-01T05:59:12;165.30;;;62.93;;
4744;SDS011;2386;42.138;24.746;2023-03-01T06:01:39;168.57;;;65.50;;
4744;SDS011;2386;42.138;24.746;2023-03-01T06:04:04;162.33;;;63.77;;
4744;SDS011;2386;42.138;24.746;2023-03-01T06:06:33;172.63;;;65.80;;
4744;SDS011;2386;42.138;24.746;2023-03-01T06:08:59;181.10;;;70.57;;
4744;SDS011;2386;42.138;24.746;2023-03-01T06:11:24;171.43;;;63.73;;
4744;SDS011;2386;42.138;24.746;2023-03-01T06:13:50;190.50;;;70.73;;
4744;SDS011;2386;42.138;24.746;2023-03-01T06:16:15;178.30;;;68.57;;
4744;SDS011;2386;42.138;24.746;2023-03-01T06:18:41;182.20;;;68.30;;
4744;SDS011;2386;42.138;24.746;2023-03-01T06:21:07;187.30;;;71.00;;
4744;SDS011;2386;42.138;24.746;2023-03-01T06:23:33;164.73;;;63.67;;
4744;SDS011;2386;42.138;24.746;2023-03-01T06:25:59;190.93;;;69.60;;
4744;SDS011;2386;42.138;24.746;2023-03-01T06:28:24;163.30;;;61.67;;
4744;SDS011;2386;42.138;24.746;2023-03-01T06:30:50;194.63;;;68.37;;
4744;SDS011;2386;42.138;24.746;2023-03-01T06:33:16;152.13;;;62.67;;
4744;SDS011;2386;42.138;24.746;2023-03-01T06:35:44;166.57;;;65.97;;
4744;SDS011;2386;42.138;24.746;2023-03-01T06:38:12;178.17;;;67.37;;
4744;SDS011;2386;42.138;24.746;2023-03-01T06:40:43;172.20;;;67.73;;
4744;SDS011;2386;42.138;24.746;2023-03-01T06:43:08;182.87;;;68.23;;
4744;SDS011;2386;42.138;24.746;2023-03-01T06:45:34;195.27;;;71.40;;
4744;SDS011;2386;42.138;24.746;2023-03-01T06:48:06;173.27;;;62.47;;
4744;SDS011;2386;42.138;24.746;2023-03-01T06:50:33;181.10;;;69.03;;
4744;SDS011;2386;42.138;24.746;2023-03-01T06:53:00;176.93;;;70.00;;
4744;SDS011;2386;42.138;24.746;2023-03-01T06:55:26;184.13;;;69.27;;
4744;SDS011;2386;42.138;24.746;2023-03-01T06:57:55;169.97;;;67.10;;
4744;SDS011;2386;42.138;24.746;2023-03-01T07:00:21;185.00;;;72.10;;
4744;SDS011;2386;42.138;24.746;2023-03-01T07:02:47;173.97;;;68.80;;
4744;SDS011;2386;42.138;24.746;2023-03-01T07:05:13;193.83;;;74.27;;
4744;SDS011;2386;42.138;24.746;2023-03-01T07:07:38;329.73;;;149.87;;
4744;SDS011;2386;42.138;24.746;2023-03-01T07:10:04;201.87;;;78.57;;
4744;SDS011;2386;42.138;24.746;2023-03-01T07:12:29;210.07;;;75.47;;
4744;SDS011;2386;42.138;24.746;2023-03-01T07:14:55;187.37;;;70.53;;
4744;SDS011;2386;42.138;24.746;2023-03-01T07:17:20;191.30;;;69.57;;
4744;SDS011;2386;42.138;24.746;2023-03-01T07:19:46;177.60;;;64.00;;
4744;SDS011;2386;42.138;24.746;2023-03-01T07:22:11;250.20;;;115.77;;
4744;SDS011;2386;42.138;24.746;2023-03-01T07:24:36;219.70;;;93.00;;
4744;SDS011;2386;42.138;24.746;2023-03-01T07:27:02;177.27;;;65.07;;
4744;SDS011;2386;42.138;24.746;2023-03-01T07:29:27;177.43;;;68.90;;
4744;SDS011;2386;42.138;24.746;2023-03-01T07:31:54;166.20;;;62.73;;
4744;SDS011;2386;42.138;24.746;2023-03-01T07:34:19;177.10;;;67.90;;
4744;SDS011;2386;42.138;24.746;2023-03-01T07:36:45;211.13;;;75.27;;
4744;SDS011;2386;42.138;24.746;2023-03-01T07:39:11;201.90;;;72.57;;
4744;SDS011;2386;42.138;24.746;2023-03-01T07:41:36;191.17;;;71.40;;
4744;SDS011;2386;42.138;24.746;2023-03-01T07:44:02;196.10;;;72.63;;
4744;SDS011;2386;42.138;24.746;2023-03-01T07:46:27;193.60;;;69.00;;
4744;SDS011;2386;42.138;24.746;2023-03-01T07:48:53;186.83;;;70.17;;
4744;SDS011;2386;42.138;24.746;2023-03-01T07:51:18;222.50;;;87.97;;
4744;SDS011;2386;42.138;24.746;2023-03-01T07:53:45;216.40;;;82.23;;
4744;SDS011;2386;42.138;24.746;2023-03-01T07:56:12;229.20;;;84.80;;
4744;SDS011;2386;42.138;24.746;2023-03-01T07:58:43;199.13;;;75.63;;
4744;SDS011;2386;42.138;24.746;2023-03-01T08:01:10;187.27;;;68.53;;
4744;SDS011;2386;42.138;24.746;2023-03-01T08:03:37;198.20;;;75.83;;
4744;SDS011;2386;42.138;24.746;2023-03-01T08:06:04;190.03;;;70.27;;
4744;SDS011;2386;42.138;24.746;2023-03-01T08:08:31;204.20;;;76.97;;
4744;SDS011;2386;42.138;24.746;2023-03-01T08:11:00;198.73;;;74.97;;
4744;SDS011;2386;42.138;24.746;2023-03-01T08:13:28;193.53;;;73.23;;
4744;SDS011;2386;42.138;24.746;2023-03-01T08:15:54;193.80;;;74.97;;
4744;SDS011;2386;42.138;24.746;2023-03-01T08:18:20;211.87;;;78.17;;
4744;SDS011;2386;42.138;24.746;2023-03-01T08:20:46;195.10;;;73.03;;
4744;SDS011;2386;42.138;24.746;2023-03-01T08:23:12;186.53;;;72.03;;
4744;SDS011;2386;42.138;24.746;2023-03-01T08:25:37;192.60;;;72.47;;
4744;SDS011;2386;42.138;24.746;2023-03-01T08:28:03;196.43;;;73.77;;
4744;SDS011;2386;42.138;24.746;2023-03-01T08:30:29;191.67;;;70.17;;
4744;SDS011;2386;42.138;24.746;2023-03-01T08:32:55;187.87;;;71.23;;
4744;SDS011;2386;42.138;24.746;2023-03-01T08:35:20;199.77;;;72.70;;
4744;SDS011;2386;42.138;24.746;2023-03-01T08:37:46;187.33;;;70.40;;
4744;SDS011;2386;42.138;24.746;2023-03-01T08:40:12;198.87;;;68.17;;
4744;SDS011;2386;42.138;24.746;2023-03-01T08:42:39;210.00;;;76.30;;
4744;SDS011;2386;42.138;24.746;2023-03-01T08:45:05;190.57;;;65.07;;
4744;SDS011;2386;42.138;24.746;2023-03-01T08:47:32;193.37;;;70.97;;
4744;SDS011;2386;42.138;24.746;2023-03-01T08:49:58;196.90;;;72.23;;
4744;SDS011;2386;42.138;24.746;2023-03-01T08:52:24;203.17;;;73.57;;
4744;SDS011;2386;42.138;24.746;2023-03-01T08:54:50;200.43;;;69.23;;
4744;SDS011;2386;42.138;24.746;2023-03-01T08:57:16;198.63;;;70.73;;
4744;SDS011;2386;42.138;24.746;2023-03-01T08:59:41;198.23;;;73.90;;
4744;SDS011;2386;42.138;24.746;2023-03-01T09:02:15;221.93;;;77.77;;
4744;SDS011;2386;42.138;24.746;2023-03-01T09:04:41;188.43;;;69.93;;
4744;SDS011;2386;42.138;24.746;2023-03-01T09:07:07;203.03;;;75.40;;
4744;SDS011;2386;42.138;24.746;2023-03-01T09:09:33;207.30;;;74.47;;
4744;SDS011;2386;42.138;24.746;2023-03-01T09:11:58;195.33;;;68.17;;
4744;SDS011;2386;42.138;24.746;2023-03-01T09:14:24;195.23;;;72.43;;
4744;SDS011;2386;42.138;24.746;2023-03-01T09:16:49;192.50;;;70.33;;
4744;SDS011;2386;42.138;24.746;2023-03-01T09:19:15;197.10;;;70.77;;
4744;SDS011;2386;42.138;24.746;2023-03-01T09:21:40;221.83;;;77.27;;
4744;SDS011;2386;42.138;24.746;2023-03-01T09:24:08;177.07;;;64.87;;
4744;SDS011;2386;42.138;24.746;2023-03-01T09:26:38;182.83;;;68.07;;
4744;SDS011;2386;42.138;24.746;2023-03-01T09:29:04;192.10;;;71.43;;
4744;SDS011;2386;42.138;24.746;2023-03-01T09:31:29;181.87;;;69.17;;
4744;SDS011;2386;42.138;24.746;2023-03-01T09:33:55;200.37;;;73.90;;
4744;SDS011;2386;42.138;24.746;2023-03-01T09:36:23;190.50;;;70.20;;
4744;SDS011;2386;42.138;24.746;2023-03-01T09:38:50;212.57;;;78.40;;
4744;SDS011;2386;42.138;24.746;2023-03-01T09:46:23;194.10;;;71.87;;
4744;SDS011;2386;42.138;24.746;2023-03-01T09:48:53;201.53;;;72.23;;
4744;SDS011;2386;42.138;24.746;2023-03-01T09:51:24;199.00;;;73.67;;
4744;SDS011;2386;42.138;24.746;2023-03-01T09:53:54;200.17;;;72.97;;
4744;SDS011;2386;42.138;24.746;2023-03-01T09:56:24;191.40;;;71.33;;
4744;SDS011;2386;42.138;24.746;2023-03-01T10:01:58;205.97;;;74.37;;
4744;SDS011;2386;42.138;24.746;2023-03-01T10:04:49;194.10;;;70.23;;
4744;SDS011;2386;42.138;24.746;2023-03-01T10:07:29;214.80;;;78.43;;
4744;SDS011;2386;42.138;24.746;2023-03-01T10:10:08;239.27;;;88.13;;
4744;SDS011;2386;42.138;24.746;2023-03-01T10:12:49;222.07;;;78.27;;
4744;SDS011;2386;42.138;24.746;2023-03-01T10:15:18;202.57;;;75.80;;
4744;SDS011;2386;42.138;24.746;2023-03-01T10:17:57;221.33;;;83.90;;
4744;SDS011;2386;42.138;24.746;2023-03-01T10:23:15;204.00;;;78.87;;
4744;SDS011;2386;42.138;24.746;2023-03-01T10:25:50;186.80;;;73.90;;
4744;SDS011;2386;42.138;24.746;2023-03-01T10:28:31;176.33;;;71.90;;
4744;SDS011;2386;42.138;24.746;2023-03-01T10:31:04;184.73;;;73.70;;
4744;SDS011;2386;42.138;24.746;2023-03-01T10:33:37;191.87;;;74.30;;
4744;SDS011;2386;42.138;24.746;2023-03-01T10:36:04;187.30;;;71.17;;
4744;SDS011;2386;42.138;24.746;2023-03-01T10:38:31;177.80;;;71.93;;
4744;SDS011;2386;42.138;24.746;2023-03-01T10:41:13;181.07;;;69.07;;
4744;SDS011;2386;42.138;24.746;2023-03-01T10:43:46;178.83;;;70.23;;
4744;SDS011;2386;42.138;24.746;2023-03-01T10:46:30;178.17;;;72.13;;
4744;SDS011;2386;42.138;24.746;2023-03-01T10:51:45;175.00;;;69.80;;
4744;SDS011;2386;42.138;24.746;2023-03-01T10:54:31;200.53;;;77.93;;
4744;SDS011;2386;42.138;24.746;2023-03-01T10:57:02;195.17;;;75.67;;
4744;SDS011;2386;42.138;24.746;2023-03-01T10:59:29;180.83;;;69.43;;
4744;SDS011;2386;42.138;24.746;2023-03-01T11:04:34;232.80;;;94.97;;
4744;SDS011;2386;42.138;24.746;2023-03-01T11:07:00;194.37;;;73.70;;
4744;SDS011;2386;42.138;24.746;2023-03-01T11:09:29;201.90;;;78.47;;
4744;SDS011;2386;42.138;24.746;2023-03-01T11:12:02;184.33;;;71.90;;
4744;SDS011;2386;42.138;24.746;2023-03-01T11:14:35;187.40;;;73.37;;
4744;SDS011;2386;42.138;24.746;2023-03-01T11:19:28;240.83;;;108.63;;
4744;SDS011;2386;42.138;24.746;2023-03-01T11:27:02;194.03;;;72.80;;
4744;SDS011;2386;42.138;24.746;2023-03-01T11:32:07;199.43;;;73.60;;
4744;SDS011;2386;42.138;24.746;2023-03-01T11:34:40;176.07;;;66.30;;
4744;SDS011;2386;42.138;24.746;2023-03-01T11:40:20;184.23;;;69.27;;
4744;SDS011;2386;42.138;24.746;2023-03-01T11:51:05;183.17;;;67.00;;
4744;SDS011;2386;42.138;24.746;2023-03-01T11:56:48;204.50;;;75.20;;
4744;SDS011;2386;42.138;24.746;2023-03-01T12:24:23;192.33;;;73.13;;
4744;SDS011;2386;42.138;24.746;2023-03-01T12:27:10;207.63;;;79.33;;
4744;SDS011;2386;42.138;24.746;2023-03-01T12:30:26;183.20;;;73.60;;
4744;SDS011;2386;42.138;24.746;2023-03-01T12:38:07;196.43;;;76.27;;
4744;SDS011;2386;42.138;24.746;2023-03-01T12:43:41;190.50;;;73.47;;
4744;SDS011;2386;42.138;24.746;2023-03-01T12:49:10;206.53;;;78.30;;
4744;SDS011;2386;42.138;24.746;2023-03-01T12:51:40;195.10;;;73.40;;
4744;SDS011;2386;42.138;24.746;2023-03-01T12:54:15;217.50;;;78.97;;
4744;SDS011;2386;42.138;24.746;2023-03-01T12:56:51;189.70;;;71.70;;
4744;SDS011;2386;42.138;24.746;2023-03-01T12:59:20;200.63;;;74.30;;
4744;SDS011;2386;42.138;24.746;2023-03-01T13:01:58;212.07;;;76.60;;
4744;SDS011;2386;42.138;24.746;2023-03-01T13:04:43;197.57;;;72.60;;
4744;SDS011;2386;42.138;24.746;2023-03-01T13:07:57;197.53;;;77.20;;
4744;SDS011;2386;42.138;24.746;2023-03-01T13:15:24;220.20;;;81.73;;
4744;SDS011;2386;42.138;24.746;2023-03-01T13:33:48;210.90;;;81.50;;
4744;SDS011;2386;42.138;24.746;2023-03-01T13:46:48;193.97;;;73.70;;
4744;SDS011;2386;42.138;24.746;2023-03-01T13:49:18;177.27;;;66.60;;
4744;SDS011;2386;42.138;24.746;2023-03-01T13:51:46;190.53;;;75.27;;
4744;SDS011;2386;42.138;24.746;2023-03-01T13:54:14;206.57;;;78.40;;
4744;SDS011;2386;42.138;24.746;2023-03-01T13:56:41;185.23;;;71.27;;
4744;SDS011;2386;42.138;24.746;2023-03-01T13:59:19;185.43;;;72.37;;
4744;SDS011;2386;42.138;24.746;2023-03-01T14:01:56;189.30;;;73.73;;
4744;SDS011;2386;42.138;24.746;2023-03-01T14:04:25;204.13;;;79.40;;
4744;SDS011;2386;42.138;24.746;2023-03-01T14:07:08;202.27;;;79.60;;
4744;SDS011;2386;42.138;24.746;2023-03-01T14:09:44;215.07;;;81.33;;
4744;SDS011;2386;42.138;24.746;2023-03-01T14:12:36;189.30;;;74.27;;
4744;SDS011;2386;42.138;24.746;2023-03-01T14:20:33;182.03;;;70.70;;
4744;SDS011;2386;42.138;24.746;2023-03-01T14:23:09;205.27;;;77.83;;
4744;SDS011;2386;42.138;24.746;2023-03-01T14:25:51;200.17;;;77.57;;
4744;SDS011;2386;42.138;24.746;2023-03-01T14:28:31;189.97;;;71.33;;
4744;SDS011;2386;42.138;24.746;2023-03-01T14:31:02;209.83;;;81.20;;
4744;SDS011;2386;42.138;24.746;2023-03-01T14:33:33;185.33;;;70.17;;
4744;SDS011;2386;42.138;24.746;2023-03-01T14:36:02;205.57;;;75.87;;
4744;SDS011;2386;42.138;24.746;2023-03-01T14:38:34;223.77;;;78.10;;
4744;SDS011;2386;42.138;24.746;2023-03-01T14:41:11;187.97;;;72.10;;
4744;SDS011;2386;42.138;24.746;2023-03-01T14:43:49;193.50;;;71.70;;
4744;SDS011;2386;42.138;24.746;2023-03-01T14:46:36;207.97;;;77.90;;
4744;SDS011;2386;42.138;24.746;2023-03-01T14:49:04;191.00;;;73.23;;
4744;SDS011;2386;42.138;24.746;2023-03-01T14:57:21;186.87;;;70.47;;
4744;SDS011;2386;42.138;24.746;2023-03-01T14:59:50;202.13;;;74.40;;
4744;SDS011;2386;42.138;24.746;2023-03-01T15:02:19;185.17;;;68.70;;
4744;SDS011;2386;42.138;24.746;2023-03-01T15:04:49;201.67;;;75.97;;
4744;SDS011;2386;42.138;24.746;2023-03-01T15:07:21;216.00;;;75.57;;
4744;SDS011;2386;42.138;24.746;2023-03-01T15:09:51;219.87;;;84.40;;
4744;SDS011;2386;42.138;24.746;2023-03-01T15:14:52;188.53;;;73.07;;
4744;SDS011;2386;42.138;24.746;2023-03-01T15:20:01;195.57;;;73.63;;
4744;SDS011;2386;42.138;24.746;2023-03-01T15:22:29;204.97;;;78.27;;
4744;SDS011;2386;42.138;24.746;2023-03-01T15:24:56;191.03;;;75.67;;
4744;SDS011;2386;42.138;24.746;2023-03-01T15:27:22;185.23;;;71.13;;
4744;SDS011;2386;42.138;24.746;2023-03-01T15:29:50;193.73;;;71.17;;
4744;SDS011;2386;42.138;24.746;2023-03-01T15:32:34;200.53;;;77.43;;
4744;SDS011;2386;42.138;24.746;2023-03-01T15:40:59;163.13;;;63.17;;
4744;SDS011;2386;42.138;24.746;2023-03-01T15:43:39;185.70;;;72.53;;
4744;SDS011;2386;42.138;24.746;2023-03-01T15:46:44;190.70;;;73.90;;
4744;SDS011;2386;42.138;24.746;2023-03-01T15:49:18;179.40;;;70.53;;
4744;SDS011;2386;42.138;24.746;2023-03-01T15:52:03;190.23;;;73.47;;
4744;SDS011;2386;42.138;24.746;2023-03-01T15:54:29;214.37;;;82.53;;
4744;SDS011;2386;42.138;24.746;2023-03-01T15:56:54;181.30;;;68.63;;
4744;SDS011;2386;42.138;24.746;2023-03-01T15:59:20;186.93;;;70.87;;
4744;SDS011;2386;42.138;24.746;2023-03-01T16:01:47;199.13;;;77.60;;
4744;SDS011;2386;42.138;24.746;2023-03-01T16:04:13;205.30;;;74.33;;
4744;SDS011;2386;42.138;24.746;2023-03-01T16:06:49;206.93;;;76.40;;
4744;SDS011;2386;42.138;24.746;2023-03-01T16:09:19;191.17;;;71.17;;
4744;SDS011;2386;42.138;24.746;2023-03-01T16:11:46;195.30;;;74.97;;
4744;SDS011;2386;42.138;24.746;2023-03-01T16:14:12;175.90;;;66.60;;
4744;SDS011;2386;42.138;24.746;2023-03-01T16:16:39;176.03;;;64.87;;
4744;SDS011;2386;42.138;24.746;2023-03-01T16:19:04;184.07;;;71.23;;
4744;SDS011;2386;42.138;24.746;2023-03-01T16:21:30;182.77;;;68.87;;
4744;SDS011;2386;42.138;24.746;2023-03-01T16:23:56;193.30;;;72.23;;
4744;SDS011;2386;42.138;24.746;2023-03-01T16:26:21;193.00;;;71.50;;
4744;SDS011;2386;42.138;24.746;2023-03-01T16:28:47;225.27;;;80.07;;
4744;SDS011;2386;42.138;24.746;2023-03-01T16:31:16;212.47;;;76.33;;
4744;SDS011;2386;42.138;24.746;2023-03-01T16:33:43;205.53;;;69.57;;
4744;SDS011;2386;42.138;24.746;2023-03-01T16:36:14;197.10;;;71.43;;
4744;SDS011;2386;42.138;24.746;2023-03-01T16:38:40;199.37;;;71.67;;
4744;SDS011;2386;42.138;24.746;2023-03-01T16:41:06;196.40;;;69.60;;
4744;SDS011;2386;42.138;24.746;2023-03-01T16:43:37;243.37;;;84.30;;
4744;SDS011;2386;42.138;24.746;2023-03-01T16:46:08;232.27;;;81.20;;
4744;SDS011;2386;42.138;24.746;2023-03-01T16:48:39;241.60;;;83.13;;
4744;SDS011;2386;42.138;24.746;2023-03-01T16:51:05;229.87;;;82.47;;